Route Details

Aircraft Information
Group: Trans-Pacific Ops
Types: B744, MD11
Route Data
Distance: 3200nm
Duration: 7h 09m
Origin METAR: OMDB 080100Z 21006KT CAVOK 24/08 Q1010 NOSIG
Dest. METAR: VHHH 080100Z 08012KT 9999 -RA FEW008 SCT020 18/15 Q1018 NOSIG
Freight Data
(for Feb 8, 2023)
Load Factor:
53%
Manifested Cargo: 119,838lbs
Financial History
Total Freight: 291,396lbs
Average Load: 0lbs/flt
Fuel Used: 543,536lbs
Avg. Fuel Used: 0lbs/flt
Fuel Expense: $318,680
Avg. Fuel Expense: $0
Avg. Fuel Cost: $0/lbs
Total Gross Income: $804,253
Pilot Pay: $767
Total Expenses: $142,598
Total Revenue: $336,182
Average Revenue: $0

Capitol Logistics 845




OMDB
Dubai International Airport
Dubai, AE
VHHH
Chek Lap Kok International
Hong Kong, HK